sensor_id;sensor_type;location;lat;lon;timestamp;temperature;humidity
3136;DHT22;1578;47.658;9.922;2023-05-17T00:02:05;9.10;94.20
3136;DHT22;1578;47.658;9.922;2023-05-17T00:04:30;9.00;94.20
3136;DHT22;1578;47.658;9.922;2023-05-17T00:06:57;9.10;94.30
3136;DHT22;1578;47.658;9.922;2023-05-17T00:09:23;9.10;93.50
3136;DHT22;1578;47.658;9.922;2023-05-17T00:11:50;9.00;93.90
3136;DHT22;1578;47.658;9.922;2023-05-17T00:14:15;8.90;93.60
3136;DHT22;1578;47.658;9.922;2023-05-17T00:16:42;8.90;93.80
3136;DHT22;1578;47.658;9.922;2023-05-17T00:19:07;8.90;94.20
3136;DHT22;1578;47.658;9.922;2023-05-17T00:21:36;8.90;94.60
3136;DHT22;1578;47.658;9.922;2023-05-17T00:24:02;8.90;94.60
3136;DHT22;1578;47.658;9.922;2023-05-17T00:26:28;8.90;94.40
3136;DHT22;1578;47.658;9.922;2023-05-17T00:28:53;9.00;94.50
3136;DHT22;1578;47.658;9.922;2023-05-17T00:31:19;9.00;93.90
3136;DHT22;1578;47.658;9.922;2023-05-17T00:33:44;8.90;93.80
3136;DHT22;1578;47.658;9.922;2023-05-17T00:36:12;8.90;94.30
3136;DHT22;1578;47.658;9.922;2023-05-17T00:38:37;9.00;94.20
3136;DHT22;1578;47.658;9.922;2023-05-17T00:41:03;8.90;93.90
3136;DHT22;1578;47.658;9.922;2023-05-17T00:43:29;9.00;93.00
3136;DHT22;1578;47.658;9.922;2023-05-17T00:45:55;9.10;92.80
3136;DHT22;1578;47.658;9.922;2023-05-17T00:48:20;9.00;92.80
3136;DHT22;1578;47.658;9.922;2023-05-17T00:50:47;9.00;93.50
3136;DHT22;1578;47.658;9.922;2023-05-17T00:53:13;9.10;92.80
3136;DHT22;1578;47.658;9.922;2023-05-17T00:55:42;8.90;93.40
3136;DHT22;1578;47.658;9.922;2023-05-17T00:58:12;8.90;93.70
3136;DHT22;1578;47.658;9.922;2023-05-17T01:00:38;8.80;93.60
3136;DHT22;1578;47.658;9.922;2023-05-17T01:03:03;8.70;93.90
3136;DHT22;1578;47.658;9.922;2023-05-17T01:05:29;8.60;94.50
3136;DHT22;1578;47.658;9.922;2023-05-17T01:07:55;8.60;94.60
3136;DHT22;1578;47.658;9.922;2023-05-17T01:10:35;8.60;94.50
3136;DHT22;1578;47.658;9.922;2023-05-17T01:13:08;8.50;92.60
3136;DHT22;1578;47.658;9.922;2023-05-17T01:15:37;8.30;91.70
3136;DHT22;1578;47.658;9.922;2023-05-17T01:18:35;8.20;93.00
3136;DHT22;1578;47.658;9.922;2023-05-17T01:21:16;8.20;92.50
3136;DHT22;1578;47.658;9.922;2023-05-17T01:26:42;8.10;94.10
3136;DHT22;1578;47.658;9.922;2023-05-17T01:29:11;8.10;93.10
3136;DHT22;1578;47.658;9.922;2023-05-17T01:31:38;8.10;93.10
3136;DHT22;1578;47.658;9.922;2023-05-17T01:34:08;7.90;93.00
3136;DHT22;1578;47.658;9.922;2023-05-17T01:36:34;8.00;92.20
3136;DHT22;1578;47.658;9.922;2023-05-17T01:39:00;8.00;91.80
3136;DHT22;1578;47.658;9.922;2023-05-17T01:41:32;8.00;92.10
3136;DHT22;1578;47.658;9.922;2023-05-17T01:49:54;8.00;93.50
3136;DHT22;1578;47.658;9.922;2023-05-17T01:52:28;7.90;93.00
3136;DHT22;1578;47.658;9.922;2023-05-17T01:58:00;8.10;92.50
3136;DHT22;1578;47.658;9.922;2023-05-17T02:00:28;8.00;91.50
3136;DHT22;1578;47.658;9.922;2023-05-17T02:02:54;7.90;92.20
3136;DHT22;1578;47.658;9.922;2023-05-17T02:05:20;7.80;92.70
3136;DHT22;1578;47.658;9.922;2023-05-17T02:07:45;7.80;91.90
3136;DHT22;1578;47.658;9.922;2023-05-17T02:10:11;7.90;90.40
3136;DHT22;1578;47.658;9.922;2023-05-17T02:12:37;7.70;90.60
3136;DHT22;1578;47.658;9.922;2023-05-17T02:15:03;7.60;91.40
3136;DHT22;1578;47.658;9.922;2023-05-17T02:17:28;7.60;92.20
3136;DHT22;1578;47.658;9.922;2023-05-17T02:19:54;7.60;90.70
3136;DHT22;1578;47.658;9.922;2023-05-17T02:22:20;7.50;90.90
3136;DHT22;1578;47.658;9.922;2023-05-17T02:24:45;7.40;92.40
3136;DHT22;1578;47.658;9.922;2023-05-17T02:27:11;7.40;92.20
3136;DHT22;1578;47.658;9.922;2023-05-17T02:29:37;7.40;91.30
3136;DHT22;1578;47.658;9.922;2023-05-17T02:32:02;7.40;91.80
3136;DHT22;1578;47.658;9.922;2023-05-17T02:34:28;7.40;91.70
3136;DHT22;1578;47.658;9.922;2023-05-17T02:36:54;7.40;91.80
3136;DHT22;1578;47.658;9.922;2023-05-17T02:39:19;7.30;90.20
3136;DHT22;1578;47.658;9.922;2023-05-17T02:41:45;7.30;91.30
3136;DHT22;1578;47.658;9.922;2023-05-17T02:44:11;7.30;91.40
3136;DHT22;1578;47.658;9.922;2023-05-17T02:46:36;7.40;90.50
3136;DHT22;1578;47.658;9.922;2023-05-17T02:49:02;7.40;90.60
3136;DHT22;1578;47.658;9.922;2023-05-17T02:51:27;7.50;90.30
3136;DHT22;1578;47.658;9.922;2023-05-17T02:53:53;7.50;90.30
3136;DHT22;1578;47.658;9.922;2023-05-17T02:56:19;7.40;90.20
3136;DHT22;1578;47.658;9.922;2023-05-17T02:58:45;7.40;89.80
3136;DHT22;1578;47.658;9.922;2023-05-17T03:01:10;7.50;90.20
3136;DHT22;1578;47.658;9.922;2023-05-17T03:03:36;7.50;90.20
3136;DHT22;1578;47.658;9.922;2023-05-17T03:06:02;7.40;90.20
3136;DHT22;1578;47.658;9.922;2023-05-17T03:08:29;7.40;89.00
3136;DHT22;1578;47.658;9.922;2023-05-17T03:10:55;7.40;88.90
3136;DHT22;1578;47.658;9.922;2023-05-17T03:13:21;7.30;90.60
3136;DHT22;1578;47.658;9.922;2023-05-17T03:15:47;7.30;91.40
3136;DHT22;1578;47.658;9.922;2023-05-17T03:18:12;7.30;91.40
3136;DHT22;1578;47.658;9.922;2023-05-17T03:20:38;7.40;90.20
3136;DHT22;1578;47.658;9.922;2023-05-17T03:23:04;7.40;90.50
3136;DHT22;1578;47.658;9.922;2023-05-17T03:25:29;7.50;90.50
3136;DHT22;1578;47.658;9.922;2023-05-17T03:27:55;7.50;90.80
3136;DHT22;1578;47.658;9.922;2023-05-17T03:30:20;7.50;90.50
3136;DHT22;1578;47.658;9.922;2023-05-17T03:32:46;7.50;90.60
3136;DHT22;1578;47.658;9.922;2023-05-17T03:35:12;7.50;90.30
3136;DHT22;1578;47.658;9.922;2023-05-17T03:37:37;7.50;90.10
3136;DHT22;1578;47.658;9.922;2023-05-17T03:40:03;7.60;89.70
3136;DHT22;1578;47.658;9.922;2023-05-17T03:42:29;7.60;88.50
3136;DHT22;1578;47.658;9.922;2023-05-17T03:44:55;7.60;88.50
3136;DHT22;1578;47.658;9.922;2023-05-17T03:47:20;7.60;88.90
3136;DHT22;1578;47.658;9.922;2023-05-17T03:49:49;7.70;89.40
3136;DHT22;1578;47.658;9.922;2023-05-17T03:52:15;7.60;88.90
3136;DHT22;1578;47.658;9.922;2023-05-17T03:54:41;7.50;89.30
3136;DHT22;1578;47.658;9.922;2023-05-17T03:57:07;7.50;89.30
3136;DHT22;1578;47.658;9.922;2023-05-17T03:59:32;7.50;90.40
3136;DHT22;1578;47.658;9.922;2023-05-17T04:01:58;7.40;90.20
3136;DHT22;1578;47.658;9.922;2023-05-17T04:04:24;7.40;90.70
3136;DHT22;1578;47.658;9.922;2023-05-17T04:06:49;7.40;90.20
3136;DHT22;1578;47.658;9.922;2023-05-17T04:09:15;7.40;88.10
3136;DHT22;1578;47.658;9.922;2023-05-17T04:11:41;7.40;88.70
3136;DHT22;1578;47.658;9.922;2023-05-17T04:14:07;7.40;90.40
3136;DHT22;1578;47.658;9.922;2023-05-17T04:16:33;7.40;90.80
3136;DHT22;1578;47.658;9.922;2023-05-17T04:19:00;7.40;90.40
3136;DHT22;1578;47.658;9.922;2023-05-17T04:21:26;7.50;90.20
3136;DHT22;1578;47.658;9.922;2023-05-17T04:23:51;7.50;88.50
3136;DHT22;1578;47.658;9.922;2023-05-17T04:26:17;7.60;88.10
3136;DHT22;1578;47.658;9.922;2023-05-17T04:28:43;7.40;80.90
3136;DHT22;1578;47.658;9.922;2023-05-17T04:31:12;7.30;80.90
3136;DHT22;1578;47.658;9.922;2023-05-17T04:33:38;7.20;76.10
3136;DHT22;1578;47.658;9.922;2023-05-17T04:36:04;7.10;80.80
3136;DHT22;1578;47.658;9.922;2023-05-17T04:38:29;7.10;73.90
3136;DHT22;1578;47.658;9.922;2023-05-17T04:41:05;7.10;77.00
3136;DHT22;1578;47.658;9.922;2023-05-17T04:43:31;7.10;76.30
3136;DHT22;1578;47.658;9.922;2023-05-17T04:45:58;7.10;76.30
3136;DHT22;1578;47.658;9.922;2023-05-17T04:48:24;7.00;76.00
3136;DHT22;1578;47.658;9.922;2023-05-17T04:50:53;7.00;78.10
3136;DHT22;1578;47.658;9.922;2023-05-17T04:53:19;6.90;77.80
3136;DHT22;1578;47.658;9.922;2023-05-17T04:55:45;6.90;75.20
3136;DHT22;1578;47.658;9.922;2023-05-17T04:58:12;6.90;79.80
3136;DHT22;1578;47.658;9.922;2023-05-17T05:00:38;7.00;76.10
3136;DHT22;1578;47.658;9.922;2023-05-17T05:03:04;6.90;75.70
3136;DHT22;1578;47.658;9.922;2023-05-17T05:05:30;7.00;75.00
3136;DHT22;1578;47.658;9.922;2023-05-17T05:07:56;7.00;72.70
3136;DHT22;1578;47.658;9.922;2023-05-17T05:10:22;7.00;75.20
3136;DHT22;1578;47.658;9.922;2023-05-17T05:12:48;7.10;75.60
3136;DHT22;1578;47.658;9.922;2023-05-17T05:15:14;7.10;73.90
3136;DHT22;1578;47.658;9.922;2023-05-17T05:17:40;7.10;72.50
3136;DHT22;1578;47.658;9.922;2023-05-17T05:20:07;7.00;71.20
3136;DHT22;1578;47.658;9.922;2023-05-17T05:22:33;7.00;73.10
3136;DHT22;1578;47.658;9.922;2023-05-17T05:24:58;7.00;68.90
3136;DHT22;1578;47.658;9.922;2023-05-17T05:27:24;7.10;70.20
3136;DHT22;1578;47.658;9.922;2023-05-17T05:29:50;7.10;69.00
3136;DHT22;1578;47.658;9.922;2023-05-17T05:32:15;7.10;70.50
3136;DHT22;1578;47.658;9.922;2023-05-17T05:34:41;7.10;71.00
3136;DHT22;1578;47.658;9.922;2023-05-17T05:37:07;7.20;68.20
3136;DHT22;1578;47.658;9.922;2023-05-17T05:39:33;7.10;68.50
3136;DHT22;1578;47.658;9.922;2023-05-17T05:41:58;7.20;67.30
3136;DHT22;1578;47.658;9.922;2023-05-17T05:44:24;7.30;70.10
3136;DHT22;1578;47.658;9.922;2023-05-17T05:46:49;7.30;68.30
3136;DHT22;1578;47.658;9.922;2023-05-17T05:49:15;7.40;67.70
3136;DHT22;1578;47.658;9.922;2023-05-17T05:51:41;7.50;63.10
3136;DHT22;1578;47.658;9.922;2023-05-17T05:54:06;7.50;65.50
3136;DHT22;1578;47.658;9.922;2023-05-17T05:56:32;7.50;64.80
3136;DHT22;1578;47.658;9.922;2023-05-17T05:58:58;7.60;68.10
3136;DHT22;1578;47.658;9.922;2023-05-17T06:01:23;7.50;67.20
3136;DHT22;1578;47.658;9.922;2023-05-17T06:03:49;7.60;68.50
3136;DHT22;1578;47.658;9.922;2023-05-17T06:06:15;7.60;63.90
3136;DHT22;1578;47.658;9.922;2023-05-17T06:08:43;7.60;66.60
3136;DHT22;1578;47.658;9.922;2023-05-17T06:11:10;7.80;64.10
3136;DHT22;1578;47.658;9.922;2023-05-17T06:13:35;7.90;69.40
3136;DHT22;1578;47.658;9.922;2023-05-17T06:16:01;8.00;64.90
3136;DHT22;1578;47.658;9.922;2023-05-17T06:18:27;8.10;68.40
3136;DHT22;1578;47.658;9.922;2023-05-17T06:20:52;8.30;62.30
3136;DHT22;1578;47.658;9.922;2023-05-17T06:23:18;8.40;56.40
3136;DHT22;1578;47.658;9.922;2023-05-17T06:25:44;8.30;58.30
3136;DHT22;1578;47.658;9.922;2023-05-17T06:28:09;8.40;65.90
3136;DHT22;1578;47.658;9.922;2023-05-17T06:30:35;8.50;60.00
3136;DHT22;1578;47.658;9.922;2023-05-17T06:33:01;8.70;59.40
3136;DHT22;1578;47.658;9.922;2023-05-17T06:35:26;8.70;54.50
3136;DHT22;1578;47.658;9.922;2023-05-17T06:37:52;8.80;55.50
3136;DHT22;1578;47.658;9.922;2023-05-17T06:40:17;8.80;51.90
3136;DHT22;1578;47.658;9.922;2023-05-17T06:42:43;8.80;49.50
3136;DHT22;1578;47.658;9.922;2023-05-17T06:45:09;8.70;51.10
3136;DHT22;1578;47.658;9.922;2023-05-17T06:47:35;8.70;55.10
3136;DHT22;1578;47.658;9.922;2023-05-17T06:50:01;8.70;51.10
3136;DHT22;1578;47.658;9.922;2023-05-17T06:52:26;8.60;51.40
3136;DHT22;1578;47.658;9.922;2023-05-17T06:54:52;8.60;53.30
3136;DHT22;1578;47.658;9.922;2023-05-17T06:57:17;8.70;53.50
3136;DHT22;1578;47.658;9.922;2023-05-17T06:59:43;8.80;53.80
3136;DHT22;1578;47.658;9.922;2023-05-17T07:02:09;8.90;55.90
3136;DHT22;1578;47.658;9.922;2023-05-17T07:04:34;9.00;50.90
3136;DHT22;1578;47.658;9.922;2023-05-17T07:07:00;9.00;50.20
3136;DHT22;1578;47.658;9.922;2023-05-17T07:09:26;9.00;46.70
3136;DHT22;1578;47.658;9.922;2023-05-17T07:11:52;9.20;51.00
3136;DHT22;1578;47.658;9.922;2023-05-17T07:14:17;9.30;48.90
3136;DHT22;1578;47.658;9.922;2023-05-17T07:16:43;9.30;45.90
3136;DHT22;1578;47.658;9.922;2023-05-17T07:19:08;9.30;47.90
3136;DHT22;1578;47.658;9.922;2023-05-17T07:21:34;9.40;47.00
3136;DHT22;1578;47.658;9.922;2023-05-17T07:24:00;9.60;48.50
3136;DHT22;1578;47.658;9.922;2023-05-17T07:26:25;9.60;48.60
3136;DHT22;1578;47.658;9.922;2023-05-17T07:28:51;9.60;45.40
3136;DHT22;1578;47.658;9.922;2023-05-17T07:31:17;9.50;49.80
3136;DHT22;1578;47.658;9.922;2023-05-17T07:33:43;9.70;54.00
3136;DHT22;1578;47.658;9.922;2023-05-17T07:36:09;9.90;46.20
3136;DHT22;1578;47.658;9.922;2023-05-17T07:38:34;10.00;46.80
3136;DHT22;1578;47.658;9.922;2023-05-17T07:41:01;10.10;43.90
3136;DHT22;1578;47.658;9.922;2023-05-17T07:43:27;10.20;46.10
3136;DHT22;1578;47.658;9.922;2023-05-17T07:45:53;10.20;44.90
3136;DHT22;1578;47.658;9.922;2023-05-17T07:48:18;10.20;56.00
3136;DHT22;1578;47.658;9.922;2023-05-17T07:50:44;10.30;40.10
3136;DHT22;1578;47.658;9.922;2023-05-17T07:53:11;10.40;39.10
3136;DHT22;1578;47.658;9.922;2023-05-17T07:55:37;10.30;39.70
3136;DHT22;1578;47.658;9.922;2023-05-17T07:58:02;10.40;41.50
3136;DHT22;1578;47.658;9.922;2023-05-17T08:00:28;10.60;43.30
3136;DHT22;1578;47.658;9.922;2023-05-17T08:02:54;10.60;43.90
3136;DHT22;1578;47.658;9.922;2023-05-17T08:05:20;10.30;38.10
3136;DHT22;1578;47.658;9.922;2023-05-17T08:07:46;10.10;37.50
3136;DHT22;1578;47.658;9.922;2023-05-17T08:10:11;10.20;37.20
3136;DHT22;1578;47.658;9.922;2023-05-17T08:12:37;10.30;42.10
3136;DHT22;1578;47.658;9.922;2023-05-17T08:15:03;10.40;46.30
3136;DHT22;1578;47.658;9.922;2023-05-17T08:17:29;10.60;46.60
3136;DHT22;1578;47.658;9.922;2023-05-17T08:19:54;10.80;33.20
3136;DHT22;1578;47.658;9.922;2023-05-17T08:22:20;10.70;33.50
3136;DHT22;1578;47.658;9.922;2023-05-17T08:24:46;10.70;37.50
3136;DHT22;1578;47.658;9.922;2023-05-17T08:27:11;10.70;39.40
3136;DHT22;1578;47.658;9.922;2023-05-17T08:29:37;10.90;32.30
3136;DHT22;1578;47.658;9.922;2023-05-17T08:32:03;11.00;38.50
3136;DHT22;1578;47.658;9.922;2023-05-17T08:34:28;10.80;32.30
3136;DHT22;1578;47.658;9.922;2023-05-17T08:36:54;10.80;37.80
3136;DHT22;1578;47.658;9.922;2023-05-17T08:39:20;10.80;32.90
3136;DHT22;1578;47.658;9.922;2023-05-17T08:41:47;11.00;31.20
3136;DHT22;1578;47.658;9.922;2023-05-17T08:44:14;10.90;34.10
3136;DHT22;1578;47.658;9.922;2023-05-17T08:46:42;10.60;39.00
3136;DHT22;1578;47.658;9.922;2023-05-17T08:49:09;10.40;30.10
3136;DHT22;1578;47.658;9.922;2023-05-17T08:51:38;10.30;41.10
3136;DHT22;1578;47.658;9.922;2023-05-17T08:54:04;10.30;41.30
3136;DHT22;1578;47.658;9.922;2023-05-17T08:56:34;10.60;40.50
3136;DHT22;1578;47.658;9.922;2023-05-17T08:59:03;10.70;31.00
3136;DHT22;1578;47.658;9.922;2023-05-17T09:01:31;10.80;30.00
3136;DHT22;1578;47.658;9.922;2023-05-17T09:03:58;11.00;26.80
3136;DHT22;1578;47.658;9.922;2023-05-17T09:06:24;11.20;30.00
3136;DHT22;1578;47.658;9.922;2023-05-17T09:08:51;11.30;26.60
3136;DHT22;1578;47.658;9.922;2023-05-17T09:11:24;11.40;28.20
3136;DHT22;1578;47.658;9.922;2023-05-17T09:13:51;11.60;26.80
3136;DHT22;1578;47.658;9.922;2023-05-17T09:16:17;11.50;32.40
3136;DHT22;1578;47.658;9.922;2023-05-17T09:18:53;11.70;25.10
3136;DHT22;1578;47.658;9.922;2023-05-17T09:21:20;11.80;28.40
3136;DHT22;1578;47.658;9.922;2023-05-17T09:23:46;11.90;23.20
3136;DHT22;1578;47.658;9.922;2023-05-17T09:26:11;12.10;23.60
3136;DHT22;1578;47.658;9.922;2023-05-17T09:28:39;11.90;21.90
3136;DHT22;1578;47.658;9.922;2023-05-17T09:31:08;12.10;27.60
3136;DHT22;1578;47.658;9.922;2023-05-17T09:33:42;12.10;25.90
3136;DHT22;1578;47.658;9.922;2023-05-17T09:36:19;12.20;20.50
3136;DHT22;1578;47.658;9.922;2023-05-17T09:39:02;12.30;21.70
3136;DHT22;1578;47.658;9.922;2023-05-17T09:41:40;12.30;19.80
3136;DHT22;1578;47.658;9.922;2023-05-17T09:44:10;12.40;19.40
3136;DHT22;1578;47.658;9.922;2023-05-17T09:46:37;12.40;17.10
3136;DHT22;1578;47.658;9.922;2023-05-17T09:49:06;12.60;17.90
3136;DHT22;1578;47.658;9.922;2023-05-17T09:53:59;12.50;21.20
3136;DHT22;1578;47.658;9.922;2023-05-17T09:56:29;12.80;20.90
3136;DHT22;1578;47.658;9.922;2023-05-17T09:58:55;13.00;19.60
3136;DHT22;1578;47.658;9.922;2023-05-17T10:01:25;13.10;22.40
3136;DHT22;1578;47.658;9.922;2023-05-17T10:03:51;13.20;20.30
3136;DHT22;1578;47.658;9.922;2023-05-17T10:06:18;13.40;19.10
3136;DHT22;1578;47.658;9.922;2023-05-17T10:08:50;13.10;21.70
3136;DHT22;1578;47.658;9.922;2023-05-17T10:11:21;13.10;21.60
3136;DHT22;1578;47.658;9.922;2023-05-17T10:13:57;13.40;21.00
3136;DHT22;1578;47.658;9.922;2023-05-17T10:16:27;13.60;14.30
3136;DHT22;1578;47.658;9.922;2023-05-17T10:18:54;13.20;12.90
3136;DHT22;1578;47.658;9.922;2023-05-17T10:21:21;13.10;13.90
3136;DHT22;1578;47.658;9.922;2023-05-17T10:23:47;13.20;18.10
3136;DHT22;1578;47.658;9.922;2023-05-17T10:26:14;13.40;14.50
3136;DHT22;1578;47.658;9.922;2023-05-17T10:28:43;13.50;13.50
3136;DHT22;1578;47.658;9.922;2023-05-17T10:31:11;13.90;14.80
3136;DHT22;1578;47.658;9.922;2023-05-17T10:33:37;14.00;15.50
3136;DHT22;1578;47.658;9.922;2023-05-17T10:36:04;13.60;16.30
3136;DHT22;1578;47.658;9.922;2023-05-17T10:38:31;13.30;13.20
3136;DHT22;1578;47.658;9.922;2023-05-17T10:40:57;13.00;15.30
3136;DHT22;1578;47.658;9.922;2023-05-17T10:43:23;12.90;16.90
3136;DHT22;1578;47.658;9.922;2023-05-17T10:45:50;12.40;21.90
3136;DHT22;1578;47.658;9.922;2023-05-17T10:48:17;12.10;21.00
3136;DHT22;1578;47.658;9.922;2023-05-17T10:50:45;12.20;18.90
3136;DHT22;1578;47.658;9.922;2023-05-17T10:53:11;12.60;17.90
3136;DHT22;1578;47.658;9.922;2023-05-17T10:55:42;12.80;16.80
3136;DHT22;1578;47.658;9.922;2023-05-17T10:58:13;13.00;16.60
3136;DHT22;1578;47.658;9.922;2023-05-17T11:00:44;12.90;16.80
3136;DHT22;1578;47.658;9.922;2023-05-17T11:05:41;12.50;19.60
3136;DHT22;1578;47.658;9.922;2023-05-17T11:08:15;12.70;20.40
3136;DHT22;1578;47.658;9.922;2023-05-17T11:11:15;12.70;13.70
3136;DHT22;1578;47.658;9.922;2023-05-17T11:13:53;12.80;19.10
3136;DHT22;1578;47.658;9.922;2023-05-17T11:16:37;13.20;19.20
3136;DHT22;1578;47.658;9.922;2023-05-17T11:19:08;13.40;18.50
3136;DHT22;1578;47.658;9.922;2023-05-17T11:21:33;13.40;14.40
3136;DHT22;1578;47.658;9.922;2023-05-17T11:24:02;13.50;13.40
3136;DHT22;1578;47.658;9.922;2023-05-17T11:26:33;13.80;16.80
3136;DHT22;1578;47.658;9.922;2023-05-17T11:29:01;13.90;13.30
3136;DHT22;1578;47.658;9.922;2023-05-17T11:31:32;13.80;10.00
3136;DHT22;1578;47.658;9.922;2023-05-17T11:33:58;13.70;11.00
3136;DHT22;1578;47.658;9.922;2023-05-17T11:36:25;13.60;11.00
3136;DHT22;1578;47.658;9.922;2023-05-17T11:39:10;13.60;14.00
3136;DHT22;1578;47.658;9.922;2023-05-17T11:41:37;13.60;11.50
3136;DHT22;1578;47.658;9.922;2023-05-17T11:44:07;13.70;14.80
3136;DHT22;1578;47.658;9.922;2023-05-17T11:46:34;13.70;15.10
3136;DHT22;1578;47.658;9.922;2023-05-17T11:49:05;13.90;11.70
3136;DHT22;1578;47.658;9.922;2023-05-17T11:51:31;13.90;10.60
3136;DHT22;1578;47.658;9.922;2023-05-17T11:53:58;14.20;10.60
3136;DHT22;1578;47.658;9.922;2023-05-17T11:56:24;14.50;7.80
3136;DHT22;1578;47.658;9.922;2023-05-17T11:58:50;14.90;9.00
3136;DHT22;1578;47.658;9.922;2023-05-17T12:01:19;15.40;7.60
3136;DHT22;1578;47.658;9.922;2023-05-17T12:03:45;16.00;6.30
3136;DHT22;1578;47.658;9.922;2023-05-17T12:06:15;16.20;6.50
3136;DHT22;1578;47.658;9.922;2023-05-17T12:08:45;16.00;6.00
3136;DHT22;1578;47.658;9.922;2023-05-17T12:11:14;15.70;5.80
3136;DHT22;1578;47.658;9.922;2023-05-17T12:13:40;15.20;6.20
3136;DHT22;1578;47.658;9.922;2023-05-17T12:16:14;14.80;5.10
3136;DHT22;1578;47.658;9.922;2023-05-17T12:21:08;14.50;10.80
3136;DHT22;1578;47.658;9.922;2023-05-17T12:23:36;14.30;5.70
3136;DHT22;1578;47.658;9.922;2023-05-17T12:26:06;13.90;8.90
3136;DHT22;1578;47.658;9.922;2023-05-17T12:28:32;13.80;8.20
3136;DHT22;1578;47.658;9.922;2023-05-17T12:30:59;13.70;8.30
3136;DHT22;1578;47.658;9.922;2023-05-17T12:33:33;13.70;8.00
3136;DHT22;1578;47.658;9.922;2023-05-17T12:36:01;13.90;9.20
3136;DHT22;1578;47.658;9.922;2023-05-17T12:38:28;13.90;9.60
3136;DHT22;1578;47.658;9.922;2023-05-17T12:40:57;14.00;7.20
3136;DHT22;1578;47.658;9.922;2023-05-17T12:43:23;14.60;10.10
3136;DHT22;1578;47.658;9.922;2023-05-17T12:45:51;15.40;8.30
3136;DHT22;1578;47.658;9.922;2023-05-17T12:48:16;15.70;7.00
3136;DHT22;1578;47.658;9.922;2023-05-17T12:50:42;15.50;6.90
3136;DHT22;1578;47.658;9.922;2023-05-17T12:53:13;14.90;9.40
3136;DHT22;1578;47.658;9.922;2023-05-17T12:55:39;14.10;5.80
3136;DHT22;1578;47.658;9.922;2023-05-17T12:58:04;13.90;9.50
3136;DHT22;1578;47.658;9.922;2023-05-17T13:00:30;13.70;8.40
3136;DHT22;1578;47.658;9.922;2023-05-17T13:02:56;13.80;7.40
3136;DHT22;1578;47.658;9.922;2023-05-17T13:05:22;13.90;10.60
3136;DHT22;1578;47.658;9.922;2023-05-17T13:07:48;13.90;8.30
3136;DHT22;1578;47.658;9.922;2023-05-17T13:12:57;14.10;8.40
3136;DHT22;1578;47.658;9.922;2023-05-17T13:15:30;14.00;6.50
3136;DHT22;1578;47.658;9.922;2023-05-17T13:17:58;14.10;8.90
3136;DHT22;1578;47.658;9.922;2023-05-17T13:20:25;14.10;8.00
3136;DHT22;1578;47.658;9.922;2023-05-17T13:22:50;14.20;9.80
3136;DHT22;1578;47.658;9.922;2023-05-17T13:25:17;14.20;9.50
3136;DHT22;1578;47.658;9.922;2023-05-17T13:27:44;14.40;9.00
3136;DHT22;1578;47.658;9.922;2023-05-17T13:30:16;14.60;11.10
3136;DHT22;1578;47.658;9.922;2023-05-17T13:32:42;14.70;9.80
3136;DHT22;1578;47.658;9.922;2023-05-17T13:35:08;14.80;8.00
3136;DHT22;1578;47.658;9.922;2023-05-17T13:37:34;15.00;6.40
3136;DHT22;1578;47.658;9.922;2023-05-17T13:40:01;14.70;7.00
3136;DHT22;1578;47.658;9.922;2023-05-17T13:42:27;14.30;6.80
3136;DHT22;1578;47.658;9.922;2023-05-17T13:44:53;14.30;9.90
3136;DHT22;1578;47.658;9.922;2023-05-17T13:47:19;14.00;9.60
3136;DHT22;1578;47.658;9.922;2023-05-17T13:49:44;13.60;7.40
3136;DHT22;1578;47.658;9.922;2023-05-17T13:52:10;13.30;12.30
3136;DHT22;1578;47.658;9.922;2023-05-17T13:54:37;13.50;10.40
3136;DHT22;1578;47.658;9.922;2023-05-17T13:57:05;13.60;10.80
3136;DHT22;1578;47.658;9.922;2023-05-17T13:59:31;13.70;10.50
3136;DHT22;1578;47.658;9.922;2023-05-17T14:01:57;13.80;9.30
3136;DHT22;1578;47.658;9.922;2023-05-17T14:04:22;14.00;12.20
3136;DHT22;1578;47.658;9.922;2023-05-17T14:06:48;14.00;10.70
3136;DHT22;1578;47.658;9.922;2023-05-17T14:09:14;14.00;10.80
3136;DHT22;1578;47.658;9.922;2023-05-17T14:11:39;13.90;9.40
3136;DHT22;1578;47.658;9.922;2023-05-17T14:14:05;14.00;10.20
3136;DHT22;1578;47.658;9.922;2023-05-17T14:16:31;13.80;15.50
3136;DHT22;1578;47.658;9.922;2023-05-17T14:18:59;13.40;9.10
3136;DHT22;1578;47.658;9.922;2023-05-17T14:24:01;12.80;13.10
3136;DHT22;1578;47.658;9.922;2023-05-17T14:26:27;12.90;11.70
3136;DHT22;1578;47.658;9.922;2023-05-17T14:28:54;12.90;11.70
3136;DHT22;1578;47.658;9.922;2023-05-17T14:31:20;12.80;13.10
3136;DHT22;1578;47.658;9.922;2023-05-17T14:33:46;12.80;11.70
3136;DHT22;1578;47.658;9.922;2023-05-17T14:36:11;13.00;12.50
3136;DHT22;1578;47.658;9.922;2023-05-17T14:38:37;13.00;10.10
3136;DHT22;1578;47.658;9.922;2023-05-17T14:41:03;12.80;9.90
3136;DHT22;1578;47.658;9.922;2023-05-17T14:43:31;12.90;9.40
3136;DHT22;1578;47.658;9.922;2023-05-17T14:45:57;12.60;9.80
3136;DHT22;1578;47.658;9.922;2023-05-17T14:48:23;12.50;9.70
3136;DHT22;1578;47.658;9.922;2023-05-17T14:50:48;12.40;11.70
3136;DHT22;1578;47.658;9.922;2023-05-17T14:53:14;12.40;11.60
3136;DHT22;1578;47.658;9.922;2023-05-17T14:55:40;12.40;12.20
3136;DHT22;1578;47.658;9.922;2023-05-17T14:58:06;12.40;13.90
3136;DHT22;1578;47.658;9.922;2023-05-17T15:00:31;12.40;13.70
3136;DHT22;1578;47.658;9.922;2023-05-17T15:02:57;12.30;14.30
3136;DHT22;1578;47.658;9.922;2023-05-17T15:05:23;12.20;15.10
3136;DHT22;1578;47.658;9.922;2023-05-17T15:07:49;12.20;16.40
3136;DHT22;1578;47.658;9.922;2023-05-17T15:10:14;12.30;16.60
3136;DHT22;1578;47.658;9.922;2023-05-17T15:12:41;12.30;16.20
3136;DHT22;1578;47.658;9.922;2023-05-17T15:15:07;12.40;16.50
3136;DHT22;1578;47.658;9.922;2023-05-17T15:17:33;12.40;17.80
3136;DHT22;1578;47.658;9.922;2023-05-17T15:19:59;12.50;17.90
3136;DHT22;1578;47.658;9.922;2023-05-17T15:22:24;12.50;17.70
3136;DHT22;1578;47.658;9.922;2023-05-17T15:24:50;12.40;17.30
3136;DHT22;1578;47.658;9.922;2023-05-17T15:27:18;12.50;16.30
3136;DHT22;1578;47.658;9.922;2023-05-17T15:29:44;12.40;17.10
3136;DHT22;1578;47.658;9.922;2023-05-17T15:32:09;12.40;19.70
3136;DHT22;1578;47.658;9.922;2023-05-17T15:34:35;12.40;17.70
3136;DHT22;1578;47.658;9.922;2023-05-17T15:37:01;12.30;17.90
3136;DHT22;1578;47.658;9.922;2023-05-17T15:39:27;12.40;20.60
3136;DHT22;1578;47.658;9.922;2023-05-17T15:41:52;12.50;19.30
3136;DHT22;1578;47.658;9.922;2023-05-17T15:44:18;12.50;19.00
3136;DHT22;1578;47.658;9.922;2023-05-17T15:46:44;12.60;21.10
3136;DHT22;1578;47.658;9.922;2023-05-17T15:49:09;12.70;19.40
3136;DHT22;1578;47.658;9.922;2023-05-17T15:51:35;12.80;19.80
3136;DHT22;1578;47.658;9.922;2023-05-17T15:54:01;12.90;18.20
3136;DHT22;1578;47.658;9.922;2023-05-17T15:56:27;12.90;18.20
3136;DHT22;1578;47.658;9.922;2023-05-17T15:58:53;12.80;17.10
3136;DHT22;1578;47.658;9.922;2023-05-17T16:01:18;12.80;16.30
3136;DHT22;1578;47.658;9.922;2023-05-17T16:03:44;12.90;16.20
3136;DHT22;1578;47.658;9.922;2023-05-17T16:06:11;12.80;15.10
3136;DHT22;1578;47.658;9.922;2023-05-17T16:08:36;12.80;16.70
3136;DHT22;1578;47.658;9.922;2023-05-17T16:11:02;12.70;17.50
3136;DHT22;1578;47.658;9.922;2023-05-17T16:13:28;12.60;16.80
3136;DHT22;1578;47.658;9.922;2023-05-17T16:15:53;12.70;17.10
3136;DHT22;1578;47.658;9.922;2023-05-17T16:18:20;12.60;16.80
3136;DHT22;1578;47.658;9.922;2023-05-17T16:20:46;12.70;18.00
3136;DHT22;1578;47.658;9.922;2023-05-17T16:23:11;12.70;18.10
3136;DHT22;1578;47.658;9.922;2023-05-17T16:25:37;12.70;17.60
3136;DHT22;1578;47.658;9.922;2023-05-17T16:28:02;12.60;17.90
3136;DHT22;1578;47.658;9.922;2023-05-17T16:30:28;12.60;17.10
3136;DHT22;1578;47.658;9.922;2023-05-17T16:32:54;12.50;17.90
3136;DHT22;1578;47.658;9.922;2023-05-17T16:35:19;12.50;17.60